To NAV CANADA Home Page Login to a new session Search on AWWS site Disclaimer Vers la page française équivalente Tips FAQ What's new on the site To the Forecasts and Observations / NOTAM section To "File a Flight Plan" website Publications and other links Update of the User's profile FIC Telephone Numbers My Weather Data Folder Route Weather Data Regional Weather Data Local Weather Data To the Forecasts and Observations / NOTAM section
Request Generated 11/13/2018 at 18:31:42 UTC . Weather information available at that time is displayed.

METAR/TAF

OTTAWA/MACDONALD-CARTIER INTL/ON    

METAR CYOW 131800Z 29015KT 1 1/2SM -SN OVC006 00/M00 A2996 RMK SN4SC4 /S02/ SLP151=
METAR CYOW 131700Z 28008KT 2 1/2SM -SN OVC004 01/00 A2997 RMK SN1SC7 SLP156=
METAR CYOW 131600Z 26004KT 1 1/2SM -SN OVC004 01/00 A3000 RMK SN4SC4 SLP165=

TAF CYOW 131742Z 1318/1418 30010KT 3SM -SN OVC004 TEMPO 1318/1320 6SM
-SN OVC015
FM132000 30012KT P6SM BKN040 TEMPO 1320/1323 BKN020
FM132300 30012KT P6SM FEW030
FM140600 31012KT P6SM BKN040
FM141100 30010G20KT P6SM FEW030
FM141500 29010G20KT P6SM BKN030
RMK NXT FCST BY 132100Z=
Your time UTC time
Weather data provided by Environment Canada and NAV CANADA